Galileia, Brazil
Current Conditions -  °F | °C
As of 7:00 AM on Thursday 27 Nov 2014 (Local Time) from SBIP Reporting Station
Broken Clouds Broken Clouds  
Wind Chill: 75°   Ceiling: 5000
Heat Index: 75°   Visibility: 6mi
Dew Point: 61°   Wind: 6mph
Humidity: 61%   Direction: 30°NNE
Pressure: 29.88"   Gusts: NA
Location:  19°S, 41.54°W
Report Text: SBIP 270900Z 03005KT 9999 SCT025 BKN050 24/16 Q1012
Loading
Personal Weather Stations






























Interactive Weather Map New forecast layout! Learn more

10-Day Weather Forecast

Advertisements
Track Severe Weather on mobile